sensor_id;sensor_type;location;lat;lon;timestamp;temperature;humidity
20398;DHT22;10358;49.590;11.030;2024-02-21T00:01:27;7.60;99.90
20398;DHT22;10358;49.590;11.030;2024-02-21T00:03:52;7.60;99.90
20398;DHT22;10358;49.590;11.030;2024-02-21T00:06:18;7.50;99.90
20398;DHT22;10358;49.590;11.030;2024-02-21T00:08:43;7.50;99.90
20398;DHT22;10358;49.590;11.030;2024-02-21T00:11:09;7.50;99.90
20398;DHT22;10358;49.590;11.030;2024-02-21T00:13:35;7.50;99.90
20398;DHT22;10358;49.590;11.030;2024-02-21T00:16:01;7.50;99.90
20398;DHT22;10358;49.590;11.030;2024-02-21T00:18:26;7.50;99.90
20398;DHT22;10358;49.590;11.030;2024-02-21T00:20:52;7.50;99.90
20398;DHT22;10358;49.590;11.030;2024-02-21T00:23:18;7.40;99.90
20398;DHT22;10358;49.590;11.030;2024-02-21T00:25:43;7.40;99.90
20398;DHT22;10358;49.590;11.030;2024-02-21T00:28:09;7.40;99.90
20398;DHT22;10358;49.590;11.030;2024-02-21T00:30:34;7.40;99.90
20398;DHT22;10358;49.590;11.030;2024-02-21T00:33:00;7.40;99.90
20398;DHT22;10358;49.590;11.030;2024-02-21T00:35:25;7.40;99.90
20398;DHT22;10358;49.590;11.030;2024-02-21T00:37:52;7.40;99.90
20398;DHT22;10358;49.590;11.030;2024-02-21T00:40:19;7.30;99.90
20398;DHT22;10358;49.590;11.030;2024-02-21T00:42:46;7.40;99.90
20398;DHT22;10358;49.590;11.030;2024-02-21T00:45:12;7.40;99.90
20398;DHT22;10358;49.590;11.030;2024-02-21T00:47:38;7.40;99.90
20398;DHT22;10358;49.590;11.030;2024-02-21T00:50:04;7.40;99.90
20398;DHT22;10358;49.590;11.030;2024-02-21T00:52:30;7.40;99.90
20398;DHT22;10358;49.590;11.030;2024-02-21T00:54:56;7.40;99.90
20398;DHT22;10358;49.590;11.030;2024-02-21T00:57:21;7.40;99.90
20398;DHT22;10358;49.590;11.030;2024-02-21T00:59:48;7.40;99.90
20398;DHT22;10358;49.590;11.030;2024-02-21T01:02:14;7.40;99.90
20398;DHT22;10358;49.590;11.030;2024-02-21T01:04:39;7.40;99.90
20398;DHT22;10358;49.590;11.030;2024-02-21T01:07:05;7.40;99.90
20398;DHT22;10358;49.590;11.030;2024-02-21T01:09:30;7.40;99.90
20398;DHT22;10358;49.590;11.030;2024-02-21T01:11:56;7.40;99.90
20398;DHT22;10358;49.590;11.030;2024-02-21T01:14:22;7.50;99.90
20398;DHT22;10358;49.590;11.030;2024-02-21T01:16:47;7.50;99.90
20398;DHT22;10358;49.590;11.030;2024-02-21T01:19:13;7.50;99.90
20398;DHT22;10358;49.590;11.030;2024-02-21T01:21:38;7.50;99.90
20398;DHT22;10358;49.590;11.030;2024-02-21T01:24:04;7.50;99.90
20398;DHT22;10358;49.590;11.030;2024-02-21T01:26:30;7.50;99.90
20398;DHT22;10358;49.590;11.030;2024-02-21T01:28:55;7.50;99.90
20398;DHT22;10358;49.590;11.030;2024-02-21T01:31:21;7.50;99.90
20398;DHT22;10358;49.590;11.030;2024-02-21T01:33:46;7.50;99.90
20398;DHT22;10358;49.590;11.030;2024-02-21T01:36:12;7.50;99.90
20398;DHT22;10358;49.590;11.030;2024-02-21T01:38:38;7.50;99.90
20398;DHT22;10358;49.590;11.030;2024-02-21T01:41:03;7.50;99.90
20398;DHT22;10358;49.590;11.030;2024-02-21T01:43:29;7.50;99.90
20398;DHT22;10358;49.590;11.030;2024-02-21T01:45:59;7.50;99.90
20398;DHT22;10358;49.590;11.030;2024-02-21T01:48:25;7.50;99.90
20398;DHT22;10358;49.590;11.030;2024-02-21T01:50:52;7.50;99.90
20398;DHT22;10358;49.590;11.030;2024-02-21T01:53:24;7.50;99.90
20398;DHT22;10358;49.590;11.030;2024-02-21T01:55:51;7.50;99.90
20398;DHT22;10358;49.590;11.030;2024-02-21T01:58:18;7.50;99.90
20398;DHT22;10358;49.590;11.030;2024-02-21T02:00:48;7.40;99.90
20398;DHT22;10358;49.590;11.030;2024-02-21T02:03:14;7.50;99.90
20398;DHT22;10358;49.590;11.030;2024-02-21T02:05:44;7.50;99.90
20398;DHT22;10358;49.590;11.030;2024-02-21T02:08:12;7.40;99.90
20398;DHT22;10358;49.590;11.030;2024-02-21T02:10:39;7.40;99.90
20398;DHT22;10358;49.590;11.030;2024-02-21T02:13:05;7.40;99.90
20398;DHT22;10358;49.590;11.030;2024-02-21T02:15:44;7.40;99.90
20398;DHT22;10358;49.590;11.030;2024-02-21T02:18:11;7.40;99.90
20398;DHT22;10358;49.590;11.030;2024-02-21T02:20:37;7.40;99.90
20398;DHT22;10358;49.590;11.030;2024-02-21T02:23:07;7.40;99.90
20398;DHT22;10358;49.590;11.030;2024-02-21T02:25:35;7.40;99.90
20398;DHT22;10358;49.590;11.030;2024-02-21T02:28:00;7.40;99.90
20398;DHT22;10358;49.590;11.030;2024-02-21T02:30:26;7.40;99.90
20398;DHT22;10358;49.590;11.030;2024-02-21T02:32:53;7.50;99.90
20398;DHT22;10358;49.590;11.030;2024-02-21T02:35:18;7.50;99.90
20398;DHT22;10358;49.590;11.030;2024-02-21T02:37:48;7.40;99.90
20398;DHT22;10358;49.590;11.030;2024-02-21T02:40:15;7.40;99.90
20398;DHT22;10358;49.590;11.030;2024-02-21T02:42:40;7.40;99.90
20398;DHT22;10358;49.590;11.030;2024-02-21T02:45:06;7.40;99.90
20398;DHT22;10358;49.590;11.030;2024-02-21T02:47:32;7.40;99.90
20398;DHT22;10358;49.590;11.030;2024-02-21T02:50:00;7.40;99.90
20398;DHT22;10358;49.590;11.030;2024-02-21T02:52:26;7.40;99.90
20398;DHT22;10358;49.590;11.030;2024-02-21T02:54:52;7.40;99.90
20398;DHT22;10358;49.590;11.030;2024-02-21T02:57:20;7.40;99.90
20398;DHT22;10358;49.590;11.030;2024-02-21T02:59:49;7.30;99.90
20398;DHT22;10358;49.590;11.030;2024-02-21T03:02:15;7.30;99.90
20398;DHT22;10358;49.590;11.030;2024-02-21T03:04:41;7.30;99.90
20398;DHT22;10358;49.590;11.030;2024-02-21T03:07:06;7.20;99.90
20398;DHT22;10358;49.590;11.030;2024-02-21T03:09:32;7.20;99.90
20398;DHT22;10358;49.590;11.030;2024-02-21T03:11:58;7.20;99.90
20398;DHT22;10358;49.590;11.030;2024-02-21T03:14:28;7.20;99.90
20398;DHT22;10358;49.590;11.030;2024-02-21T03:16:54;7.20;99.90
20398;DHT22;10358;49.590;11.030;2024-02-21T03:19:20;7.20;99.90
20398;DHT22;10358;49.590;11.030;2024-02-21T03:21:45;7.20;99.90
20398;DHT22;10358;49.590;11.030;2024-02-21T03:24:11;7.20;99.90
20398;DHT22;10358;49.590;11.030;2024-02-21T03:26:36;7.20;99.90
20398;DHT22;10358;49.590;11.030;2024-02-21T03:29:04;7.30;99.90
20398;DHT22;10358;49.590;11.030;2024-02-21T03:31:29;7.20;99.90
20398;DHT22;10358;49.590;11.030;2024-02-21T03:33:55;7.30;99.90
20398;DHT22;10358;49.590;11.030;2024-02-21T03:36:20;7.30;99.90
20398;DHT22;10358;49.590;11.030;2024-02-21T03:38:46;7.30;99.90
20398;DHT22;10358;49.590;11.030;2024-02-21T03:41:11;7.30;99.90
20398;DHT22;10358;49.590;11.030;2024-02-21T03:43:38;7.30;99.90
20398;DHT22;10358;49.590;11.030;2024-02-21T03:46:06;7.30;99.90
20398;DHT22;10358;49.590;11.030;2024-02-21T03:48:32;7.30;99.90
20398;DHT22;10358;49.590;11.030;2024-02-21T03:50:58;7.20;99.90
20398;DHT22;10358;49.590;11.030;2024-02-21T03:53:23;7.30;99.90
20398;DHT22;10358;49.590;11.030;2024-02-21T03:55:49;7.30;99.90
20398;DHT22;10358;49.590;11.030;2024-02-21T03:58:14;7.30;99.90
20398;DHT22;10358;49.590;11.030;2024-02-21T04:00:41;7.30;99.90
20398;DHT22;10358;49.590;11.030;2024-02-21T04:03:06;7.30;99.90
20398;DHT22;10358;49.590;11.030;2024-02-21T04:05:32;7.30;99.90
20398;DHT22;10358;49.590;11.030;2024-02-21T04:07:58;7.30;99.90
20398;DHT22;10358;49.590;11.030;2024-02-21T04:10:24;7.30;99.90
20398;DHT22;10358;49.590;11.030;2024-02-21T04:12:49;7.30;99.90
20398;DHT22;10358;49.590;11.030;2024-02-21T04:15:17;7.40;99.90
20398;DHT22;10358;49.590;11.030;2024-02-21T04:17:42;7.40;99.90
20398;DHT22;10358;49.590;11.030;2024-02-21T04:20:14;7.30;99.90
20398;DHT22;10358;49.590;11.030;2024-02-21T04:22:43;7.40;99.90
20398;DHT22;10358;49.590;11.030;2024-02-21T04:25:10;7.30;99.90
20398;DHT22;10358;49.590;11.030;2024-02-21T04:27:36;7.30;99.90
20398;DHT22;10358;49.590;11.030;2024-02-21T04:30:02;7.30;99.90
20398;DHT22;10358;49.590;11.030;2024-02-21T04:32:28;7.20;99.90
20398;DHT22;10358;49.590;11.030;2024-02-21T04:34:54;7.20;99.90
20398;DHT22;10358;49.590;11.030;2024-02-21T04:37:20;7.20;99.90
20398;DHT22;10358;49.590;11.030;2024-02-21T04:39:46;7.20;99.90
20398;DHT22;10358;49.590;11.030;2024-02-21T04:42:11;7.20;99.90
20398;DHT22;10358;49.590;11.030;2024-02-21T04:44:37;7.20;99.90
20398;DHT22;10358;49.590;11.030;2024-02-21T04:47:03;7.20;99.90
20398;DHT22;10358;49.590;11.030;2024-02-21T04:49:29;7.20;99.90
20398;DHT22;10358;49.590;11.030;2024-02-21T04:51:55;7.20;99.90
20398;DHT22;10358;49.590;11.030;2024-02-21T04:54:21;7.10;99.90
20398;DHT22;10358;49.590;11.030;2024-02-21T04:56:46;7.10;99.90
20398;DHT22;10358;49.590;11.030;2024-02-21T04:59:12;7.10;99.90
20398;DHT22;10358;49.590;11.030;2024-02-21T05:01:37;7.00;99.90
20398;DHT22;10358;49.590;11.030;2024-02-21T05:04:03;7.00;99.90
20398;DHT22;10358;49.590;11.030;2024-02-21T05:06:29;7.00;99.90
20398;DHT22;10358;49.590;11.030;2024-02-21T05:08:54;6.90;99.90
20398;DHT22;10358;49.590;11.030;2024-02-21T05:11:21;6.90;99.90
20398;DHT22;10358;49.590;11.030;2024-02-21T05:13:47;6.80;99.90
20398;DHT22;10358;49.590;11.030;2024-02-21T05:16:12;6.80;99.90
20398;DHT22;10358;49.590;11.030;2024-02-21T05:18:38;6.80;99.90
20398;DHT22;10358;49.590;11.030;2024-02-21T05:21:05;6.70;99.90
20398;DHT22;10358;49.590;11.030;2024-02-21T05:23:30;6.70;99.90
20398;DHT22;10358;49.590;11.030;2024-02-21T05:25:56;6.70;99.90
20398;DHT22;10358;49.590;11.030;2024-02-21T05:28:21;6.70;99.90
20398;DHT22;10358;49.590;11.030;2024-02-21T05:30:47;6.70;99.90
20398;DHT22;10358;49.590;11.030;2024-02-21T05:33:12;6.60;99.90
20398;DHT22;10358;49.590;11.030;2024-02-21T05:35:46;6.60;99.90
20398;DHT22;10358;49.590;11.030;2024-02-21T05:38:12;6.60;99.90
20398;DHT22;10358;49.590;11.030;2024-02-21T05:40:37;6.60;99.90
20398;DHT22;10358;49.590;11.030;2024-02-21T05:43:03;6.60;99.90
20398;DHT22;10358;49.590;11.030;2024-02-21T05:45:28;6.50;99.90
20398;DHT22;10358;49.590;11.030;2024-02-21T05:47:54;6.50;99.90
20398;DHT22;10358;49.590;11.030;2024-02-21T05:50:19;6.40;99.90
20398;DHT22;10358;49.590;11.030;2024-02-21T05:52:46;6.40;99.90
20398;DHT22;10358;49.590;11.030;2024-02-21T05:55:12;6.30;99.90
20398;DHT22;10358;49.590;11.030;2024-02-21T05:57:38;6.30;99.90
20398;DHT22;10358;49.590;11.030;2024-02-21T06:00:05;6.30;99.90
20398;DHT22;10358;49.590;11.030;2024-02-21T06:02:30;6.30;99.90
20398;DHT22;10358;49.590;11.030;2024-02-21T06:04:56;6.20;99.90
20398;DHT22;10358;49.590;11.030;2024-02-21T06:07:22;6.20;99.90
20398;DHT22;10358;49.590;11.030;2024-02-21T06:09:47;6.20;99.90
20398;DHT22;10358;49.590;11.030;2024-02-21T06:12:13;6.20;99.90
20398;DHT22;10358;49.590;11.030;2024-02-21T06:14:38;6.20;99.90
20398;DHT22;10358;49.590;11.030;2024-02-21T06:17:04;6.10;99.90
20398;DHT22;10358;49.590;11.030;2024-02-21T06:19:30;6.10;99.90
20398;DHT22;10358;49.590;11.030;2024-02-21T06:21:55;6.10;99.90
20398;DHT22;10358;49.590;11.030;2024-02-21T06:24:21;6.00;99.90
20398;DHT22;10358;49.590;11.030;2024-02-21T06:26:47;6.00;99.90
20398;DHT22;10358;49.590;11.030;2024-02-21T06:29:12;6.00;99.90
20398;DHT22;10358;49.590;11.030;2024-02-21T06:31:39;6.00;99.90
20398;DHT22;10358;49.590;11.030;2024-02-21T06:34:05;6.00;99.90
20398;DHT22;10358;49.590;11.030;2024-02-21T06:36:31;6.00;99.90
20398;DHT22;10358;49.590;11.030;2024-02-21T06:38:57;6.00;99.90
20398;DHT22;10358;49.590;11.030;2024-02-21T06:41:22;6.00;99.90
20398;DHT22;10358;49.590;11.030;2024-02-21T06:43:48;6.00;99.90
20398;DHT22;10358;49.590;11.030;2024-02-21T06:46:32;6.00;99.90
20398;DHT22;10358;49.590;11.030;2024-02-21T06:48:59;6.00;99.90
20398;DHT22;10358;49.590;11.030;2024-02-21T06:51:27;6.00;99.90
20398;DHT22;10358;49.590;11.030;2024-02-21T06:53:53;6.10;99.90
20398;DHT22;10358;49.590;11.030;2024-02-21T06:56:19;6.10;99.90
20398;DHT22;10358;49.590;11.030;2024-02-21T06:58:45;6.10;99.90
20398;DHT22;10358;49.590;11.030;2024-02-21T07:01:11;6.10;99.90
20398;DHT22;10358;49.590;11.030;2024-02-21T07:03:38;6.10;99.90
20398;DHT22;10358;49.590;11.030;2024-02-21T07:06:03;6.10;99.90
20398;DHT22;10358;49.590;11.030;2024-02-21T07:08:29;6.10;99.90
20398;DHT22;10358;49.590;11.030;2024-02-21T07:10:55;6.20;99.90
20398;DHT22;10358;49.590;11.030;2024-02-21T07:13:20;6.20;99.90
20398;DHT22;10358;49.590;11.030;2024-02-21T07:15:48;6.10;99.90
20398;DHT22;10358;49.590;11.030;2024-02-21T07:18:14;6.20;99.90
20398;DHT22;10358;49.590;11.030;2024-02-21T07:20:39;6.20;99.90
20398;DHT22;10358;49.590;11.030;2024-02-21T07:23:07;6.20;99.90
20398;DHT22;10358;49.590;11.030;2024-02-21T07:25:32;6.30;99.90
20398;DHT22;10358;49.590;11.030;2024-02-21T07:27:58;6.30;99.90
20398;DHT22;10358;49.590;11.030;2024-02-21T07:30:23;6.40;99.90
20398;DHT22;10358;49.590;11.030;2024-02-21T07:32:50;6.50;99.90
20398;DHT22;10358;49.590;11.030;2024-02-21T07:35:17;6.60;99.90
20398;DHT22;10358;49.590;11.030;2024-02-21T07:37:43;6.60;99.90
20398;DHT22;10358;49.590;11.030;2024-02-21T07:40:16;6.70;99.90
20398;DHT22;10358;49.590;11.030;2024-02-21T07:42:42;6.80;99.90
20398;DHT22;10358;49.590;11.030;2024-02-21T07:45:08;6.90;99.90
20398;DHT22;10358;49.590;11.030;2024-02-21T07:47:34;7.10;99.90
20398;DHT22;10358;49.590;11.030;2024-02-21T07:50:01;7.20;99.90
20398;DHT22;10358;49.590;11.030;2024-02-21T07:52:26;7.40;99.90
20398;DHT22;10358;49.590;11.030;2024-02-21T07:54:52;7.60;99.90
20398;DHT22;10358;49.590;11.030;2024-02-21T07:57:17;7.80;99.90
20398;DHT22;10358;49.590;11.030;2024-02-21T07:59:43;7.90;99.90
20398;DHT22;10358;49.590;11.030;2024-02-21T08:02:09;7.90;99.90
20398;DHT22;10358;49.590;11.030;2024-02-21T08:04:34;7.90;99.90
20398;DHT22;10358;49.590;11.030;2024-02-21T08:07:00;8.00;99.90
20398;DHT22;10358;49.590;11.030;2024-02-21T08:09:30;8.00;99.90
20398;DHT22;10358;49.590;11.030;2024-02-21T08:11:55;8.00;99.90
20398;DHT22;10358;49.590;11.030;2024-02-21T08:14:21;8.10;99.90
20398;DHT22;10358;49.590;11.030;2024-02-21T08:16:48;8.10;99.90
20398;DHT22;10358;49.590;11.030;2024-02-21T08:19:13;8.20;99.90
20398;DHT22;10358;49.590;11.030;2024-02-21T08:21:40;8.30;99.90
20398;DHT22;10358;49.590;11.030;2024-02-21T08:24:06;8.40;99.90
20398;DHT22;10358;49.590;11.030;2024-02-21T08:26:31;8.60;99.90
20398;DHT22;10358;49.590;11.030;2024-02-21T08:28:57;8.80;99.90
20398;DHT22;10358;49.590;11.030;2024-02-21T08:31:26;8.90;99.90
20398;DHT22;10358;49.590;11.030;2024-02-21T08:34:00;9.00;99.90
20398;DHT22;10358;49.590;11.030;2024-02-21T08:36:33;9.10;99.90
20398;DHT22;10358;49.590;11.030;2024-02-21T08:39:00;9.10;99.90
20398;DHT22;10358;49.590;11.030;2024-02-21T08:41:26;9.10;99.90
20398;DHT22;10358;49.590;11.030;2024-02-21T08:43:52;9.10;99.90
20398;DHT22;10358;49.590;11.030;2024-02-21T08:46:19;9.10;99.90
20398;DHT22;10358;49.590;11.030;2024-02-21T08:48:45;9.10;99.90
20398;DHT22;10358;49.590;11.030;2024-02-21T08:51:12;9.20;99.90
20398;DHT22;10358;49.590;11.030;2024-02-21T08:53:37;9.30;99.90
20398;DHT22;10358;49.590;11.030;2024-02-21T08:56:04;9.40;99.90
20398;DHT22;10358;49.590;11.030;2024-02-21T08:58:29;9.40;99.90
20398;DHT22;10358;49.590;11.030;2024-02-21T09:00:55;9.50;99.90
20398;DHT22;10358;49.590;11.030;2024-02-21T09:03:20;9.60;99.90
20398;DHT22;10358;49.590;11.030;2024-02-21T09:05:46;9.70;99.90
20398;DHT22;10358;49.590;11.030;2024-02-21T09:08:12;9.70;99.90
20398;DHT22;10358;49.590;11.030;2024-02-21T09:10:39;9.80;99.90
20398;DHT22;10358;49.590;11.030;2024-02-21T09:13:05;9.80;99.90
20398;DHT22;10358;49.590;11.030;2024-02-21T09:15:31;9.90;99.90
20398;DHT22;10358;49.590;11.030;2024-02-21T09:17:57;9.90;99.90
20398;DHT22;10358;49.590;11.030;2024-02-21T09:20:23;10.00;99.90
20398;DHT22;10358;49.590;11.030;2024-02-21T09:22:48;10.00;99.90
20398;DHT22;10358;49.590;11.030;2024-02-21T09:25:14;10.20;99.90
20398;DHT22;10358;49.590;11.030;2024-02-21T09:27:40;10.20;99.90
20398;DHT22;10358;49.590;11.030;2024-02-21T09:30:07;10.30;99.90
20398;DHT22;10358;49.590;11.030;2024-02-21T09:32:33;10.50;99.90
20398;DHT22;10358;49.590;11.030;2024-02-21T09:34:58;10.50;99.90
20398;DHT22;10358;49.590;11.030;2024-02-21T09:37:24;10.50;99.90
20398;DHT22;10358;49.590;11.030;2024-02-21T09:39:50;10.40;99.90
20398;DHT22;10358;49.590;11.030;2024-02-21T09:42:20;10.40;99.90
20398;DHT22;10358;49.590;11.030;2024-02-21T09:44:46;10.50;99.90
20398;DHT22;10358;49.590;11.030;2024-02-21T09:47:22;10.40;99.90
20398;DHT22;10358;49.590;11.030;2024-02-21T09:49:50;10.40;99.90
20398;DHT22;10358;49.590;11.030;2024-02-21T09:52:19;10.40;99.90
20398;DHT22;10358;49.590;11.030;2024-02-21T09:54:46;10.40;99.90
20398;DHT22;10358;49.590;11.030;2024-02-21T09:57:13;10.40;99.90
20398;DHT22;10358;49.590;11.030;2024-02-21T09:59:39;10.30;99.90
20398;DHT22;10358;49.590;11.030;2024-02-21T10:02:06;10.40;99.90
20398;DHT22;10358;49.590;11.030;2024-02-21T10:04:32;10.40;99.90
20398;DHT22;10358;49.590;11.030;2024-02-21T10:06:58;10.50;99.90
20398;DHT22;10358;49.590;11.030;2024-02-21T10:09:32;10.50;99.90
20398;DHT22;10358;49.590;11.030;2024-02-21T10:12:12;10.60;99.90
20398;DHT22;10358;49.590;11.030;2024-02-21T10:14:38;10.60;99.90
20398;DHT22;10358;49.590;11.030;2024-02-21T10:17:04;10.60;99.90
20398;DHT22;10358;49.590;11.030;2024-02-21T10:19:34;10.70;99.90
20398;DHT22;10358;49.590;11.030;2024-02-21T10:22:04;10.70;99.90
20398;DHT22;10358;49.590;11.030;2024-02-21T10:24:31;10.70;99.90
20398;DHT22;10358;49.590;11.030;2024-02-21T10:27:05;10.80;99.90
20398;DHT22;10358;49.590;11.030;2024-02-21T10:29:33;10.70;99.90
20398;DHT22;10358;49.590;11.030;2024-02-21T10:32:06;10.70;99.90
20398;DHT22;10358;49.590;11.030;2024-02-21T10:34:32;10.70;99.90
20398;DHT22;10358;49.590;11.030;2024-02-21T10:37:16;10.80;99.90
20398;DHT22;10358;49.590;11.030;2024-02-21T10:39:42;10.90;99.90
20398;DHT22;10358;49.590;11.030;2024-02-21T10:42:10;10.90;99.90
20398;DHT22;10358;49.590;11.030;2024-02-21T10:44:40;11.10;99.90
20398;DHT22;10358;49.590;11.030;2024-02-21T10:47:09;11.20;99.90
20398;DHT22;10358;49.590;11.030;2024-02-21T10:49:39;11.30;99.90
20398;DHT22;10358;49.590;11.030;2024-02-21T10:55:16;11.50;99.90
20398;DHT22;10358;49.590;11.030;2024-02-21T10:57:42;11.50;99.90
20398;DHT22;10358;49.590;11.030;2024-02-21T11:00:09;11.50;99.90
20398;DHT22;10358;49.590;11.030;2024-02-21T11:02:38;11.50;99.90
20398;DHT22;10358;49.590;11.030;2024-02-21T11:05:05;11.60;99.90
20398;DHT22;10358;49.590;11.030;2024-02-21T11:07:35;11.60;99.90
20398;DHT22;10358;49.590;11.030;2024-02-21T11:10:02;11.50;99.90
20398;DHT22;10358;49.590;11.030;2024-02-21T11:12:32;11.50;99.90
20398;DHT22;10358;49.590;11.030;2024-02-21T11:15:07;11.50;99.90
20398;DHT22;10358;49.590;11.030;2024-02-21T11:17:33;11.60;99.90
20398;DHT22;10358;49.590;11.030;2024-02-21T11:19:59;11.60;99.90
20398;DHT22;10358;49.590;11.030;2024-02-21T11:22:43;11.60;99.90
20398;DHT22;10358;49.590;11.030;2024-02-21T11:25:09;11.60;99.90
20398;DHT22;10358;49.590;11.030;2024-02-21T11:27:37;11.60;99.90
20398;DHT22;10358;49.590;11.030;2024-02-21T11:30:04;11.60;99.90
20398;DHT22;10358;49.590;11.030;2024-02-21T11:32:31;11.60;99.90
20398;DHT22;10358;49.590;11.030;2024-02-21T11:35:02;11.60;99.90
20398;DHT22;10358;49.590;11.030;2024-02-21T11:37:29;11.60;99.90
20398;DHT22;10358;49.590;11.030;2024-02-21T11:39:56;11.70;99.90
20398;DHT22;10358;49.590;11.030;2024-02-21T11:42:21;11.70;99.90
20398;DHT22;10358;49.590;11.030;2024-02-21T11:44:48;11.80;99.90
20398;DHT22;10358;49.590;11.030;2024-02-21T11:47:14;11.80;99.90
20398;DHT22;10358;49.590;11.030;2024-02-21T11:49:47;11.80;99.90
20398;DHT22;10358;49.590;11.030;2024-02-21T11:52:16;11.80;99.90
20398;DHT22;10358;49.590;11.030;2024-02-21T11:54:44;11.90;99.90
20398;DHT22;10358;49.590;11.030;2024-02-21T11:57:10;11.90;99.90
20398;DHT22;10358;49.590;11.030;2024-02-21T11:59:40;12.00;99.90
20398;DHT22;10358;49.590;11.030;2024-02-21T12:02:06;12.00;99.90
20398;DHT22;10358;49.590;11.030;2024-02-21T12:04:32;12.20;99.90
20398;DHT22;10358;49.590;11.030;2024-02-21T12:06:58;12.20;99.90
20398;DHT22;10358;49.590;11.030;2024-02-21T12:09:25;12.20;99.90
20398;DHT22;10358;49.590;11.030;2024-02-21T12:12:02;12.20;99.90
20398;DHT22;10358;49.590;11.030;2024-02-21T12:14:33;12.30;99.90
20398;DHT22;10358;49.590;11.030;2024-02-21T12:17:00;12.40;99.90
20398;DHT22;10358;49.590;11.030;2024-02-21T12:19:28;12.50;99.90
20398;DHT22;10358;49.590;11.030;2024-02-21T12:21:54;12.50;99.90
20398;DHT22;10358;49.590;11.030;2024-02-21T12:24:24;12.60;99.90
20398;DHT22;10358;49.590;11.030;2024-02-21T12:26:51;12.60;99.90
20398;DHT22;10358;49.590;11.030;2024-02-21T12:29:21;12.60;99.90
20398;DHT22;10358;49.590;11.030;2024-02-21T12:31:47;12.70;99.90
20398;DHT22;10358;49.590;11.030;2024-02-21T12:34:13;12.70;99.90
20398;DHT22;10358;49.590;11.030;2024-02-21T12:36:42;12.80;99.90
20398;DHT22;10358;49.590;11.030;2024-02-21T12:39:09;12.80;99.90
20398;DHT22;10358;49.590;11.030;2024-02-21T12:41:35;12.80;99.90
20398;DHT22;10358;49.590;11.030;2024-02-21T12:44:06;12.70;99.90
20398;DHT22;10358;49.590;11.030;2024-02-21T12:46:33;12.80;99.90
20398;DHT22;10358;49.590;11.030;2024-02-21T12:48:59;12.80;99.90
20398;DHT22;10358;49.590;11.030;2024-02-21T12:51:24;12.90;99.90
20398;DHT22;10358;49.590;11.030;2024-02-21T12:53:50;13.00;99.90
20398;DHT22;10358;49.590;11.030;2024-02-21T12:56:16;13.00;99.90
20398;DHT22;10358;49.590;11.030;2024-02-21T12:58:42;13.00;99.90
20398;DHT22;10358;49.590;11.030;2024-02-21T13:01:07;13.10;99.90
20398;DHT22;10358;49.590;11.030;2024-02-21T13:03:33;13.10;99.90
20398;DHT22;10358;49.590;11.030;2024-02-21T13:05:58;13.10;99.90
20398;DHT22;10358;49.590;11.030;2024-02-21T13:08:24;13.10;99.90
20398;DHT22;10358;49.590;11.030;2024-02-21T13:10:50;13.10;99.90
20398;DHT22;10358;49.590;11.030;2024-02-21T13:13:16;13.10;99.90
20398;DHT22;10358;49.590;11.030;2024-02-21T13:15:42;13.20;99.90
20398;DHT22;10358;49.590;11.030;2024-02-21T13:18:10;13.30;99.90
20398;DHT22;10358;49.590;11.030;2024-02-21T13:20:36;13.40;99.90
20398;DHT22;10358;49.590;11.030;2024-02-21T13:23:02;13.40;99.90
20398;DHT22;10358;49.590;11.030;2024-02-21T13:25:28;13.40;99.70
20398;DHT22;10358;49.590;11.030;2024-02-21T13:27:54;13.40;98.90
20398;DHT22;10358;49.590;11.030;2024-02-21T13:30:20;13.40;98.70
20398;DHT22;10358;49.590;11.030;2024-02-21T13:32:46;13.40;98.60
20398;DHT22;10358;49.590;11.030;2024-02-21T13:35:12;13.60;98.20
20398;DHT22;10358;49.590;11.030;2024-02-21T13:37:38;13.60;98.10
20398;DHT22;10358;49.590;11.030;2024-02-21T13:40:05;13.60;97.90
20398;DHT22;10358;49.590;11.030;2024-02-21T13:42:30;13.60;97.40
20398;DHT22;10358;49.590;11.030;2024-02-21T13:44:56;13.60;96.60
20398;DHT22;10358;49.590;11.030;2024-02-21T13:47:21;13.60;96.10
20398;DHT22;10358;49.590;11.030;2024-02-21T13:49:48;13.50;95.50
20398;DHT22;10358;49.590;11.030;2024-02-21T13:52:15;13.50;94.00
20398;DHT22;10358;49.590;11.030;2024-02-21T13:54:40;13.50;93.70
20398;DHT22;10358;49.590;11.030;2024-02-21T13:57:07;13.50;93.70
20398;DHT22;10358;49.590;11.030;2024-02-21T13:59:34;13.50;93.80
20398;DHT22;10358;49.590;11.030;2024-02-21T14:01:59;13.60;93.60
20398;DHT22;10358;49.590;11.030;2024-02-21T14:04:25;13.60;93.50
20398;DHT22;10358;49.590;11.030;2024-02-21T14:06:51;13.60;93.20
20398;DHT22;10358;49.590;11.030;2024-02-21T14:09:18;13.60;92.70
20398;DHT22;10358;49.590;11.030;2024-02-21T14:11:44;13.50;90.90
20398;DHT22;10358;49.590;11.030;2024-02-21T14:14:10;13.40;91.90
20398;DHT22;10358;49.590;11.030;2024-02-21T14:16:36;13.30;92.10
20398;DHT22;10358;49.590;11.030;2024-02-21T14:19:01;13.30;92.00
20398;DHT22;10358;49.590;11.030;2024-02-21T14:21:29;13.30;92.30
20398;DHT22;10358;49.590;11.030;2024-02-21T14:23:55;13.30;92.60
20398;DHT22;10358;49.590;11.030;2024-02-21T14:26:22;13.40;92.70
20398;DHT22;10358;49.590;11.030;2024-02-21T14:28:47;13.40;91.90
20398;DHT22;10358;49.590;11.030;2024-02-21T14:31:13;13.40;92.10
20398;DHT22;10358;49.590;11.030;2024-02-21T14:33:39;13.40;91.80
20398;DHT22;10358;49.590;11.030;2024-02-21T14:36:04;13.30;91.70
20398;DHT22;10358;49.590;11.030;2024-02-21T14:38:30;13.30;91.50
20398;DHT22;10358;49.590;11.030;2024-02-21T14:40:56;13.30;91.60
20398;DHT22;10358;49.590;11.030;2024-02-21T14:43:22;13.30;91.30
20398;DHT22;10358;49.590;11.030;2024-02-21T14:45:48;13.30;90.90
20398;DHT22;10358;49.590;11.030;2024-02-21T14:48:14;13.20;90.60
20398;DHT22;10358;49.590;11.030;2024-02-21T14:50:40;13.10;90.50
20398;DHT22;10358;49.590;11.030;2024-02-21T14:53:06;13.10;90.70
20398;DHT22;10358;49.590;11.030;2024-02-21T14:55:33;13.00;90.50
20398;DHT22;10358;49.590;11.030;2024-02-21T14:57:59;13.00;90.90
20398;DHT22;10358;49.590;11.030;2024-02-21T15:00:24;12.90;90.70
20398;DHT22;10358;49.590;11.030;2024-02-21T15:02:56;12.80;90.90
20398;DHT22;10358;49.590;11.030;2024-02-21T15:05:22;12.80;90.90
20398;DHT22;10358;49.590;11.030;2024-02-21T15:07:48;12.80;90.80
20398;DHT22;10358;49.590;11.030;2024-02-21T15:10:13;12.70;90.30
20398;DHT22;10358;49.590;11.030;2024-02-21T15:12:39;12.60;90.10
20398;DHT22;10358;49.590;11.030;2024-02-21T15:15:06;12.60;90.10
20398;DHT22;10358;49.590;11.030;2024-02-21T15:17:32;12.50;90.10
20398;DHT22;10358;49.590;11.030;2024-02-21T15:19:57;12.50;90.10
20398;DHT22;10358;49.590;11.030;2024-02-21T15:22:24;12.40;90.00
20398;DHT22;10358;49.590;11.030;2024-02-21T15:24:49;12.40;90.40